createdAt,value
2023-04-27T00:02:29.079Z,99485.56
2023-04-27T00:05:39.537Z,99476.31
2023-04-27T00:08:42.045Z,99479.97
2023-04-27T00:11:43.947Z,99484.59
2023-04-27T00:14:46.276Z,99486.13
2023-04-27T00:17:48.503Z,99481.75
2023-04-27T00:20:50.579Z,99485.56
2023-04-27T00:23:54.561Z,99487.75
2023-04-27T00:26:56.562Z,99488.00
2023-04-27T00:29:58.802Z,99487.88
2023-04-27T00:33:02.255Z,99483.00
2023-04-27T00:36:04.588Z,99489.97
2023-04-27T00:39:06.612Z,99482.53
2023-04-27T00:42:13.257Z,99484.06
2023-04-27T00:45:15.182Z,99486.47
2023-04-27T00:48:17.434Z,99475.00
2023-04-27T00:51:19.559Z,99478.31
2023-04-27T00:54:22.037Z,99479.13
2023-04-27T00:57:23.949Z,99485.38
2023-04-27T01:00:25.956Z,99479.50
2023-04-27T01:03:30.703Z,99483.81
2023-04-27T01:06:32.757Z,99490.63
2023-04-27T01:09:34.800Z,99481.97
2023-04-27T01:12:37.434Z,99478.50
2023-04-27T01:15:41.172Z,99483.31
2023-04-27T01:18:45.596Z,99486.00
2023-04-27T01:21:55.608Z,99467.66
2023-04-27T01:25:00.272Z,99494.47
2023-04-27T01:28:02.209Z,99500.66
2023-04-27T01:31:05.322Z,99491.88
2023-04-27T01:34:07.506Z,99491.91
2023-04-27T01:37:09.564Z,99487.91
2023-04-27T01:40:12.046Z,99499.50
2023-04-27T01:43:14.034Z,99490.56
2023-04-27T01:46:16.345Z,99487.44
2023-04-27T01:49:18.874Z,99484.66
2023-04-27T01:52:20.977Z,99489.13
2023-04-27T01:55:22.947Z,99489.03
2023-04-27T01:58:25.123Z,99497.06
2023-04-27T02:01:28.244Z,99487.09
2023-04-27T02:04:30.393Z,99506.41
2023-04-27T02:07:33.135Z,99503.63
2023-04-27T02:10:35.964Z,99503.28
2023-04-27T02:13:38.072Z,99510.41
2023-04-27T02:16:40.672Z,99510.97
2023-04-27T02:19:43.331Z,99509.38
2023-04-27T02:22:45.806Z,99512.88
2023-04-27T02:25:47.780Z,99515.69
2023-04-27T02:28:51.210Z,99517.69
2023-04-27T02:31:53.396Z,99518.09
2023-04-27T02:34:56.841Z,99519.56
2023-04-27T02:37:59.036Z,99525.38
2023-04-27T02:41:01.037Z,99522.44
2023-04-27T02:44:03.028Z,99529.91
2023-04-27T02:47:06.229Z,99528.34
2023-04-27T02:50:08.808Z,99530.16
2023-04-27T02:53:11.836Z,99539.00
2023-04-27T02:56:14.096Z,99540.38
2023-04-27T02:59:16.372Z,99529.25
2023-04-27T03:02:18.619Z,99526.72
2023-04-27T03:05:20.966Z,99531.31
2023-04-27T03:08:22.903Z,99531.50
2023-04-27T03:11:24.932Z,99528.31
2023-04-27T03:14:26.858Z,99536.31
2023-04-27T03:17:28.922Z,99537.94
2023-04-27T03:20:30.891Z,99547.03
2023-04-27T03:23:32.959Z,99540.00
2023-04-27T03:26:34.949Z,99547.91
2023-04-27T03:29:36.974Z,99553.63
2023-04-27T03:32:40.049Z,99560.84
2023-04-27T03:35:41.927Z,99558.06
2023-04-27T03:38:43.770Z,99558.56
2023-04-27T03:41:46.206Z,99562.38
2023-04-27T03:44:48.312Z,99565.06
2023-04-27T03:47:50.591Z,99569.03
2023-04-27T03:50:53.205Z,99558.66
2023-04-27T03:53:56.505Z,99570.91
2023-04-27T03:56:58.368Z,99564.84
2023-04-27T04:00:00.586Z,99571.50
2023-04-27T04:03:03.347Z,99577.63
2023-04-27T04:06:06.190Z,99562.78
2023-04-27T04:09:08.384Z,99581.69
2023-04-27T04:12:11.023Z,99581.78
2023-04-27T04:15:13.005Z,99583.72
2023-04-27T04:18:15.132Z,99583.16
2023-04-27T04:21:17.546Z,99589.50
2023-04-27T04:24:19.956Z,99598.28
2023-04-27T04:27:22.010Z,99596.19
2023-04-27T04:30:24.057Z,99607.19
2023-04-27T04:33:26.411Z,99604.94
2023-04-27T04:36:28.642Z,99608.78
2023-04-27T04:39:31.842Z,99614.41
2023-04-27T04:42:33.727Z,99616.34
2023-04-27T04:45:35.783Z,99625.53
2023-04-27T04:48:37.784Z,99628.72
2023-04-27T04:51:44.164Z,99629.09
2023-04-27T04:54:47.139Z,99627.31
2023-04-27T04:57:49.005Z,99631.94
2023-04-27T05:00:51.068Z,99629.47
2023-04-27T05:03:53.079Z,99634.84
2023-04-27T05:06:55.135Z,99636.13
2023-04-27T05:09:57.333Z,99631.16
2023-04-27T05:12:59.300Z,99637.97
2023-04-27T05:16:05.431Z,99637.13
2023-04-27T05:19:08.409Z,99650.13
2023-04-27T05:22:10.768Z,99654.44
2023-04-27T05:25:20.796Z,99651.75
2023-04-27T05:28:22.876Z,99658.88
2023-04-27T05:31:24.980Z,99657.75
2023-04-27T05:34:27.157Z,99660.44
2023-04-27T05:37:29.081Z,99660.66
2023-04-27T05:40:55.778Z,99663.13
2023-04-27T05:43:57.626Z,99663.66
2023-04-27T05:46:59.622Z,99664.00
2023-04-27T05:50:01.638Z,99662.84
2023-04-27T05:53:05.638Z,99671.66
2023-04-27T05:56:07.892Z,99671.91
2023-04-27T05:59:10.087Z,99669.78
2023-04-27T06:02:12.207Z,99680.06
2023-04-27T06:05:14.413Z,99672.28
2023-04-27T06:08:16.751Z,99683.44
2023-04-27T06:11:18.677Z,99683.31
2023-04-27T06:14:20.971Z,99678.84
2023-04-27T06:17:22.919Z,99682.56
2023-04-27T06:20:25.066Z,99684.28
2023-04-27T06:23:27.329Z,99690.00
2023-04-27T06:26:29.205Z,99686.03
2023-04-27T06:29:31.350Z,99690.56
2023-04-27T06:32:33.357Z,99702.59
2023-04-27T06:35:35.411Z,99693.47
2023-04-27T06:38:37.367Z,99694.81
2023-04-27T06:41:39.248Z,99697.97
2023-04-27T06:44:54.426Z,99691.50
2023-04-27T06:47:57.180Z,99702.34
2023-04-27T06:50:59.561Z,99709.16
2023-04-27T06:54:01.545Z,99707.13
2023-04-27T06:57:03.503Z,99708.78
2023-04-27T07:00:06.484Z,99716.75
2023-04-27T07:03:08.603Z,99709.25
2023-04-27T07:06:10.786Z,99712.97
2023-04-27T07:09:26.124Z,99720.94
2023-04-27T07:12:29.275Z,99703.22
2023-04-27T07:15:31.883Z,99710.78
2023-04-27T07:18:34.628Z,99711.31
2023-04-27T07:21:40.569Z,99719.78
2023-04-27T07:24:43.477Z,99716.75
2023-04-27T07:27:45.440Z,99724.00
2023-04-27T07:30:47.890Z,99722.53
2023-04-27T07:33:50.129Z,99725.84
2023-04-27T07:36:54.556Z,99724.53
2023-04-27T07:39:56.602Z,99726.22
2023-04-27T07:42:58.644Z,99728.38
2023-04-27T07:46:01.401Z,99724.59
2023-04-27T07:49:04.151Z,99730.97
2023-04-27T07:52:06.126Z,99729.75
2023-04-27T07:55:08.369Z,99712.16
2023-04-27T07:58:10.352Z,99719.06
2023-04-27T08:01:12.392Z,99738.50
2023-04-27T08:04:18.282Z,99736.75
2023-04-27T08:07:20.541Z,99715.69
2023-04-27T08:10:23.404Z,99721.97
2023-04-27T08:13:25.652Z,99731.41
2023-04-27T08:16:28.284Z,99736.59
2023-04-27T08:19:30.522Z,99731.78
2023-04-27T08:22:32.650Z,99743.28
2023-04-27T08:25:37.148Z,99742.28
2023-04-27T08:28:39.264Z,99748.72
2023-04-27T08:31:41.551Z,99739.66
2023-04-27T08:34:44.977Z,99740.53
2023-04-27T08:37:46.914Z,99734.84
2023-04-27T08:40:49.101Z,99743.09
2023-04-27T08:43:51.774Z,99743.66
2023-04-27T08:46:53.866Z,99734.94
2023-04-27T08:49:56.127Z,99731.88
2023-04-27T08:52:58.142Z,99727.50
2023-04-27T08:56:00.260Z,99734.63
2023-04-27T08:59:04.629Z,99735.00
2023-04-27T09:02:07.156Z,99725.69
2023-04-27T09:05:24.551Z,99730.31
2023-04-27T09:08:26.577Z,99721.59
2023-04-27T09:11:33.880Z,99729.03
2023-04-27T09:14:36.829Z,99721.81
2023-04-27T09:17:38.994Z,99716.19
2023-04-27T09:20:51.539Z,99718.53
2023-04-27T09:23:54.812Z,99705.72
2023-04-27T09:26:58.404Z,99709.53
2023-04-27T09:30:01.921Z,99709.88
2023-04-27T09:33:04.901Z,99709.88
2023-04-27T09:36:07.188Z,99713.13
2023-04-27T09:39:09.364Z,99717.13
2023-04-27T09:42:12.696Z,99709.31
2023-04-27T09:45:15.411Z,99703.69
2023-04-27T09:48:18.525Z,99706.97
2023-04-27T09:51:20.580Z,99701.28
2023-04-27T09:54:27.329Z,99700.66
2023-04-27T09:57:34.925Z,99697.53
2023-04-27T10:01:05.014Z,99691.41
2023-04-27T10:04:22.304Z,99695.06
2023-04-27T10:07:27.499Z,99700.03
2023-04-27T10:10:29.522Z,99689.63
2023-04-27T10:13:31.695Z,99690.19
2023-04-27T10:16:54.936Z,99692.47
2023-04-27T10:20:01.093Z,99696.66
2023-04-27T10:23:03.472Z,99698.97
2023-04-27T10:26:08.045Z,99697.97
2023-04-27T10:29:10.752Z,99699.53
2023-04-27T10:32:18.918Z,99700.38
2023-04-27T10:35:22.222Z,99695.63
2023-04-27T10:38:31.032Z,99709.28
2023-04-27T10:41:36.410Z,99708.91
2023-04-27T10:44:39.092Z,99704.34
2023-04-27T10:47:45.544Z,99707.19
2023-04-27T10:50:47.624Z,99709.06
2023-04-27T10:53:52.678Z,99700.81
2023-04-27T10:56:55.743Z,99704.91
2023-04-27T10:59:57.955Z,99690.22
2023-04-27T11:03:19.519Z,99697.75
2023-04-27T11:06:21.828Z,99704.25
2023-04-27T11:09:27.698Z,99704.28
2023-04-27T11:12:34.472Z,99696.44
2023-04-27T11:15:50.054Z,99705.03
2023-04-27T11:18:52.117Z,99703.34
2023-04-27T11:22:03.359Z,99691.59
2023-04-27T11:25:05.660Z,99697.25
2023-04-27T11:28:18.417Z,99699.81
2023-04-27T11:31:21.110Z,99701.06
2023-04-27T11:34:24.878Z,99696.28
2023-04-27T11:37:27.958Z,99691.66
2023-04-27T11:40:30.025Z,99694.38
2023-04-27T11:43:32.627Z,99695.50
2023-04-27T11:46:36.699Z,99694.38
2023-04-27T11:49:38.801Z,99682.75
2023-04-27T11:52:41.040Z,99687.75
2023-04-27T11:55:43.552Z,99690.41
2023-04-27T11:58:46.512Z,99691.97
2023-04-27T12:01:49.381Z,99681.03
2023-04-27T12:04:52.373Z,99680.69
2023-04-27T12:07:55.041Z,99681.53
2023-04-27T12:10:57.220Z,99668.34
2023-04-27T12:14:02.891Z,99674.50
2023-04-27T12:17:04.910Z,99684.91
2023-04-27T12:20:07.576Z,99673.78
2023-04-27T12:23:49.492Z,99672.09
2023-04-27T12:27:51.218Z,99680.50
2023-04-27T12:31:43.140Z,99675.56
2023-04-27T12:34:45.092Z,99672.34
2023-04-27T12:37:48.453Z,99673.84
2023-04-27T12:40:50.498Z,99665.00
2023-04-27T12:43:52.689Z,99671.34
2023-04-27T12:46:54.675Z,99653.09
2023-04-27T12:49:56.667Z,99660.28
2023-04-27T12:52:59.084Z,99663.50
2023-04-27T12:56:02.691Z,99670.66
2023-04-27T12:59:06.005Z,99657.59
2023-04-27T13:02:08.829Z,99667.16
2023-04-27T13:05:11.872Z,99671.72
2023-04-27T13:08:13.934Z,99661.13
2023-04-27T13:11:16.698Z,99660.44
2023-04-27T13:14:18.848Z,99662.09
2023-04-27T13:17:21.067Z,99663.69
2023-04-27T13:41:06.810Z,99678.91
2023-04-27T13:44:08.720Z,99669.94
2023-04-27T13:47:36.996Z,99684.19
2023-04-27T13:50:59.050Z,99681.22
2023-04-27T13:54:21.738Z,99672.69
2023-04-27T13:57:43.514Z,99678.00
2023-04-27T14:00:48.095Z,99681.41
2023-04-27T14:03:50.550Z,99675.16
2023-04-27T14:06:52.736Z,99676.63
2023-04-27T14:09:54.792Z,99673.44
2023-04-27T14:12:57.250Z,99673.34
2023-04-27T14:15:59.292Z,99674.28
2023-04-27T14:19:01.247Z,99672.94
2023-04-27T14:22:04.723Z,99673.97
2023-04-27T14:25:07.259Z,99674.06
2023-04-27T14:28:10.749Z,99677.81
2023-04-27T14:31:12.641Z,99673.34
2023-04-27T14:34:14.917Z,99670.25
2023-04-27T14:37:16.904Z,99674.72
2023-04-27T14:40:20.157Z,99673.59
2023-04-27T14:43:22.595Z,99680.34
2023-04-27T14:46:24.539Z,99680.72
2023-04-27T14:49:26.558Z,99675.88
2023-04-27T14:52:29.312Z,99677.03
2023-04-27T14:55:31.627Z,99670.16
2023-04-27T14:58:33.847Z,99676.31
2023-04-27T15:01:37.036Z,99684.41
2023-04-27T15:04:40.072Z,99674.50
2023-04-27T15:07:42.037Z,99681.44
2023-04-27T15:10:44.782Z,99679.91
2023-04-27T15:13:47.061Z,99680.63
2023-04-27T15:16:49.669Z,99673.25
2023-04-27T15:19:52.099Z,99679.03
2023-04-27T15:22:54.393Z,99681.81
2023-04-27T15:25:58.018Z,99685.31
2023-04-27T15:29:00.554Z,99677.50
2023-04-27T15:32:02.928Z,99678.56
2023-04-27T15:35:06.072Z,99682.72
2023-04-27T15:41:26.694Z,99682.72
2023-04-27T15:44:28.730Z,99683.28
2023-04-27T15:47:30.740Z,99682.16
2023-04-27T15:50:32.809Z,99677.28
2023-04-27T15:53:34.701Z,99681.63
2023-04-27T15:56:36.664Z,99678.94
2023-04-27T15:59:38.556Z,99677.91
2023-04-27T16:02:40.818Z,99677.91
2023-04-27T16:05:42.930Z,99683.31
2023-04-27T16:08:45.008Z,99679.44
2023-04-27T16:11:46.933Z,99683.91
2023-04-27T16:14:48.891Z,99684.63
2023-04-27T16:17:50.841Z,99687.31
2023-04-27T16:20:52.785Z,99696.84
2023-04-27T16:23:54.727Z,99691.44
2023-04-27T16:26:56.848Z,99696.22
2023-04-27T16:29:58.753Z,99704.41
2023-04-27T16:33:00.823Z,99697.38
2023-04-27T16:36:02.754Z,99698.81
2023-04-27T16:39:05.266Z,99700.28
2023-04-27T16:42:07.196Z,99705.34
2023-04-27T16:45:10.977Z,99699.44
2023-04-27T16:48:13.143Z,99710.09
2023-04-27T16:51:15.262Z,99716.53
2023-04-27T16:54:17.169Z,99717.56
2023-04-27T16:57:20.369Z,99708.22
2023-04-27T17:00:22.362Z,99712.38
2023-04-27T17:03:24.874Z,99704.41
2023-04-27T17:06:28.170Z,99712.66
2023-04-27T17:09:30.262Z,99718.06
2023-04-27T17:12:32.379Z,99719.28
2023-04-27T17:15:34.289Z,99725.72
2023-04-27T17:18:36.195Z,99724.47
2023-04-27T17:21:38.556Z,99719.72
2023-04-27T17:24:40.877Z,99730.25
2023-04-27T17:27:42.785Z,99725.06
2023-04-27T17:30:44.799Z,99735.06
2023-04-27T17:33:46.724Z,99742.13
2023-04-27T17:36:48.581Z,99740.16
2023-04-27T17:39:51.752Z,99741.25
2023-04-27T17:42:56.509Z,99742.38
2023-04-27T17:45:58.505Z,99749.00
2023-04-27T17:49:00.945Z,99752.78
2023-04-27T17:52:03.202Z,99760.25
2023-04-27T17:55:05.710Z,99759.34
2023-04-27T17:58:08.160Z,99761.19
2023-04-27T18:01:11.562Z,99760.94
2023-04-27T18:04:13.709Z,99761.22
2023-04-27T18:07:18.536Z,99766.19
2023-04-27T18:10:20.867Z,99771.81
2023-04-27T18:34:17.044Z,99813.91
2023-04-27T18:37:19.145Z,99813.75
2023-04-27T18:40:22.637Z,99818.56
2023-04-27T18:43:25.630Z,99824.03
2023-04-27T18:46:27.833Z,99826.47
2023-04-27T18:49:29.979Z,99827.41
2023-04-27T18:52:32.069Z,99840.63
2023-04-27T18:55:34.021Z,99830.44
2023-04-27T18:58:36.064Z,99839.44
2023-04-27T19:01:38.876Z,99845.69
2023-04-27T19:04:45.398Z,99843.69
2023-04-27T19:07:54.898Z,99845.78
2023-04-27T19:10:58.458Z,99846.09
2023-04-27T19:14:00.656Z,99852.09
2023-04-27T19:17:03.962Z,99848.66
2023-04-27T19:20:08.431Z,99848.25
2023-04-27T19:23:12.561Z,99848.59
2023-04-27T19:26:18.859Z,99845.84
2023-04-27T19:29:24.202Z,99847.78
2023-04-27T19:32:27.485Z,99850.09
2023-04-27T19:35:30.402Z,99849.16
2023-04-27T19:38:33.961Z,99852.22
2023-04-27T19:41:35.897Z,99851.72
2023-04-27T19:44:38.404Z,99849.00
2023-04-27T19:47:40.708Z,99855.97
2023-04-27T19:50:43.609Z,99851.56
2023-04-27T19:53:45.849Z,99844.09
2023-04-27T19:56:47.772Z,99851.06
2023-04-27T19:59:50.075Z,99846.28
2023-04-27T20:02:53.611Z,99849.22
2023-04-27T20:05:56.799Z,99858.94
2023-04-27T20:08:58.913Z,99858.31
2023-04-27T20:12:01.331Z,99857.91
2023-04-27T20:15:05.262Z,99861.53
2023-04-27T20:18:07.478Z,99855.53
2023-04-27T20:21:09.451Z,99857.69
2023-04-27T20:24:11.668Z,99863.75
2023-04-27T20:27:13.689Z,99862.16
2023-04-27T20:30:16.072Z,99865.50
2023-04-27T20:33:19.759Z,99867.19
2023-04-27T20:36:23.175Z,99865.63
2023-04-27T20:39:33.102Z,99864.28
2023-04-27T20:42:36.008Z,99869.06
2023-04-27T20:45:37.918Z,99868.34
2023-04-27T20:48:39.864Z,99872.09
2023-04-27T20:51:42.089Z,99862.63
2023-04-27T20:54:43.960Z,99864.06
2023-04-27T20:57:45.961Z,99854.91
2023-04-27T21:00:49.321Z,99859.91
2023-04-27T21:03:51.636Z,99860.91
2023-04-27T21:06:53.646Z,99863.31
2023-04-27T21:09:55.832Z,99858.50
2023-04-27T21:12:57.900Z,99858.31
2023-04-27T21:15:59.698Z,99866.78
2023-04-27T21:19:01.706Z,99867.25
2023-04-27T21:22:03.701Z,99866.66
2023-04-27T21:25:06.126Z,99866.88
2023-04-27T21:28:08.207Z,99878.25
2023-04-27T21:31:10.146Z,99874.94
2023-04-27T21:34:12.261Z,99877.00
2023-04-27T21:37:14.166Z,99867.09
2023-04-27T21:40:16.131Z,99879.88
2023-04-27T21:43:18.034Z,99884.25
2023-04-27T21:46:25.026Z,99883.59
2023-04-27T21:49:27.240Z,99884.88
2023-04-27T21:52:29.197Z,99880.53
2023-04-27T21:55:31.180Z,99896.81
2023-04-27T21:58:33.711Z,99901.06
2023-04-27T22:01:35.828Z,99897.50
2023-04-27T22:04:38.479Z,99896.81
2023-04-27T22:07:41.490Z,99897.78
2023-04-27T22:10:44.182Z,99905.34
2023-04-27T22:13:46.603Z,99911.50
2023-04-27T22:16:49.417Z,99908.78
2023-04-27T22:19:51.875Z,99924.69
2023-04-27T22:22:53.959Z,99920.69
2023-04-27T22:25:55.800Z,99915.63
2023-04-27T22:28:57.775Z,99920.16
2023-04-27T22:31:59.786Z,99922.03
2023-04-27T22:35:02.391Z,99919.41
2023-04-27T22:38:04.372Z,99917.66
2023-04-27T22:41:06.263Z,99918.78
2023-04-27T22:44:08.231Z,99922.09
2023-04-27T22:47:10.872Z,99923.78
2023-04-27T22:50:13.605Z,99922.56
2023-04-27T22:53:15.787Z,99923.94
2023-04-27T22:56:17.686Z,99927.34
2023-04-27T22:59:25.650Z,99925.84
2023-04-27T23:02:27.704Z,99924.09
2023-04-27T23:05:31.353Z,99926.88
2023-04-27T23:08:33.226Z,99926.94
2023-04-27T23:11:35.295Z,99924.91
2023-04-27T23:14:37.687Z,99921.13
2023-04-27T23:17:39.654Z,99918.66
2023-04-27T23:20:41.598Z,99916.28
2023-04-27T23:23:43.560Z,99921.66
2023-04-27T23:26:45.579Z,99924.91
2023-04-27T23:29:47.600Z,99919.38
2023-04-27T23:32:49.634Z,99919.78
2023-04-27T23:35:53.066Z,99917.03
2023-04-27T23:38:56.594Z,99920.66
2023-04-27T23:41:58.502Z,99914.56
2023-04-27T23:45:00.410Z,99921.63
2023-04-27T23:48:02.301Z,99914.31
2023-04-27T23:51:04.824Z,99920.22
2023-04-27T23:54:07.309Z,99920.44
2023-04-27T23:57:09.182Z,99920.28
